LESA/SLM METAR and TAF weather

Enter ICAO airport designator
Station Type Date Time Source
LESA METAR 2022/06/27 08:30 UTC NOAA

LESA 270830Z 08005KT 020V130 9999 SCT018 13/06 Q1020


Station Type Date Time Source
LESA Decoded METAR 2022/06/27 08:30 UTC NOAA

Salamanca / Matacan, Spain (LESA) 40-57N 005-30W 795M
Jun 27, 2022 - 04:30 AM EDT / 2022.06.27 0830 UTC
Wind: from the E (080 degrees) at 6 MPH (5 KT) (direction variable):0
Visibility: greater than 7 mile(s):0
Sky conditions: partly cloudy
Temperature: 55 F (13 C)
Dew Point: 42 F (6 C)
Relative Humidity: 62%
Pressure (altimeter): 30.12 in. Hg (1020 hPa)
ob: LESA 270830Z 08005KT 020V130 9999 SCT018 13/06 Q1020
cycle: 8

Station Type Date Time Source
LESA TAF 2022/06/27 09:27 UTC NOAA

TAF LESA 270800Z 2709/2809 03010KT 9999 BKN025 TX25/2715Z TN08/2805Z PROB30
TEMPO 2709/2710 BKN018

Example: see airport list